sensor_id;sensor_type;location;lat;lon;timestamp;temperature;humidity
70708;SHT30;58277;47.316;18.908;2023-05-10T00:00:46;10.97;78.01
70708;SHT30;58277;47.316;18.908;2023-05-10T00:03:09;11.01;78.08
70708;SHT30;58277;47.316;18.908;2023-05-10T00:05:32;11.10;77.67
70708;SHT30;58277;47.316;18.908;2023-05-10T00:07:54;11.04;77.98
70708;SHT30;58277;47.316;18.908;2023-05-10T00:10:17;10.99;78.10
70708;SHT30;58277;47.316;18.908;2023-05-10T00:12:40;10.89;78.71
70708;SHT30;58277;47.316;18.908;2023-05-10T00:15:03;10.89;78.58
70708;SHT30;58277;47.316;18.908;2023-05-10T00:17:26;10.80;78.98
70708;SHT30;58277;47.316;18.908;2023-05-10T00:19:49;10.72;79.13
70708;SHT30;58277;47.316;18.908;2023-05-10T00:22:12;10.61;79.75
70708;SHT30;58277;47.316;18.908;2023-05-10T00:24:35;10.62;79.98
70708;SHT30;58277;47.316;18.908;2023-05-10T00:26:57;10.51;80.40
70708;SHT30;58277;47.316;18.908;2023-05-10T00:29:20;10.56;80.27
70708;SHT30;58277;47.316;18.908;2023-05-10T00:31:42;10.49;80.44
70708;SHT30;58277;47.316;18.908;2023-05-10T00:34:05;10.42;80.83
70708;SHT30;58277;47.316;18.908;2023-05-10T00:36:28;10.34;81.08
70708;SHT30;58277;47.316;18.908;2023-05-10T00:38:51;10.40;80.70
70708;SHT30;58277;47.316;18.908;2023-05-10T00:41:14;10.38;81.05
70708;SHT30;58277;47.316;18.908;2023-05-10T00:43:37;10.30;81.28
70708;SHT30;58277;47.316;18.908;2023-05-10T00:46:00;10.22;81.53
70708;SHT30;58277;47.316;18.908;2023-05-10T00:48:23;10.18;81.77
70708;SHT30;58277;47.316;18.908;2023-05-10T00:50:46;10.14;81.89
70708;SHT30;58277;47.316;18.908;2023-05-10T00:53:09;10.11;82.07
70708;SHT30;58277;47.316;18.908;2023-05-10T00:55:32;10.15;82.10
70708;SHT30;58277;47.316;18.908;2023-05-10T00:57:55;10.13;82.15
70708;SHT30;58277;47.316;18.908;2023-05-10T01:00:18;10.25;81.58
70708;SHT30;58277;47.316;18.908;2023-05-10T01:02:41;10.28;81.50
70708;SHT30;58277;47.316;18.908;2023-05-10T01:05:05;10.24;81.74
70708;SHT30;58277;47.316;18.908;2023-05-10T01:07:28;10.20;81.88
70708;SHT30;58277;47.316;18.908;2023-05-10T01:09:51;10.30;81.59
70708;SHT30;58277;47.316;18.908;2023-05-10T01:12:14;10.37;81.44
70708;SHT30;58277;47.316;18.908;2023-05-10T01:14:37;10.40;81.27
70708;SHT30;58277;47.316;18.908;2023-05-10T01:17:01;10.45;81.09
70708;SHT30;58277;47.316;18.908;2023-05-10T01:19:26;10.53;80.87
70708;SHT30;58277;47.316;18.908;2023-05-10T01:24:38;10.63;80.28
70708;SHT30;58277;47.316;18.908;2023-05-10T01:27:35;10.66;80.06
70708;SHT30;58277;47.316;18.908;2023-05-10T01:35:29;10.51;80.89
70708;SHT30;58277;47.316;18.908;2023-05-10T01:38:06;10.45;81.22
70708;SHT30;58277;47.316;18.908;2023-05-10T01:43:04;10.48;81.27
70708;SHT30;58277;47.316;18.908;2023-05-10T01:45:33;10.46;81.42
70708;SHT30;58277;47.316;18.908;2023-05-10T01:48:11;10.42;81.52
70708;SHT30;58277;47.316;18.908;2023-05-10T01:50:37;10.46;81.50
70708;SHT30;58277;47.316;18.908;2023-05-10T01:53:01;10.46;81.62
70708;SHT30;58277;47.316;18.908;2023-05-10T01:55:28;10.44;81.60
70708;SHT30;58277;47.316;18.908;2023-05-10T01:58:08;10.46;81.44
70708;SHT30;58277;47.316;18.908;2023-05-10T02:00:32;10.55;81.21
70708;SHT30;58277;47.316;18.908;2023-05-10T02:02:55;10.55;81.17
70708;SHT30;58277;47.316;18.908;2023-05-10T02:05:19;10.59;80.99
70708;SHT30;58277;47.316;18.908;2023-05-10T02:07:43;10.61;81.08
70708;SHT30;58277;47.316;18.908;2023-05-10T02:10:08;10.66;80.79
70708;SHT30;58277;47.316;18.908;2023-05-10T02:12:36;10.75;80.62
70708;SHT30;58277;47.316;18.908;2023-05-10T02:15:01;10.75;80.56
70708;SHT30;58277;47.316;18.908;2023-05-10T02:17:25;10.84;79.97
70708;SHT30;58277;47.316;18.908;2023-05-10T02:19:49;10.95;79.77
70708;SHT30;58277;47.316;18.908;2023-05-10T02:22:14;10.99;79.69
70708;SHT30;58277;47.316;18.908;2023-05-10T02:24:38;10.88;79.75
70708;SHT30;58277;47.316;18.908;2023-05-10T02:27:03;10.86;80.04
70708;SHT30;58277;47.316;18.908;2023-05-10T02:29:26;10.88;79.77
70708;SHT30;58277;47.316;18.908;2023-05-10T02:31:51;10.93;79.60
70708;SHT30;58277;47.316;18.908;2023-05-10T02:34:15;11.00;79.12
70708;SHT30;58277;47.316;18.908;2023-05-10T02:36:38;10.97;79.55
70708;SHT30;58277;47.316;18.908;2023-05-10T02:39:02;11.03;79.43
70708;SHT30;58277;47.316;18.908;2023-05-10T02:41:25;10.93;79.80
70708;SHT30;58277;47.316;18.908;2023-05-10T02:43:51;10.92;79.67
70708;SHT30;58277;47.316;18.908;2023-05-10T02:46:15;11.01;79.51
70708;SHT30;58277;47.316;18.908;2023-05-10T02:48:38;11.00;79.37
70708;SHT30;58277;47.316;18.908;2023-05-10T02:51:05;11.04;79.26
70708;SHT30;58277;47.316;18.908;2023-05-10T02:53:31;10.99;79.57
70708;SHT30;58277;47.316;18.908;2023-05-10T02:55:57;10.96;79.50
70708;SHT30;58277;47.316;18.908;2023-05-10T02:58:21;10.77;80.20
70708;SHT30;58277;47.316;18.908;2023-05-10T03:00:44;10.80;80.17
70708;SHT30;58277;47.316;18.908;2023-05-10T03:03:07;10.73;80.41
70708;SHT30;58277;47.316;18.908;2023-05-10T03:05:31;10.66;80.74
70708;SHT30;58277;47.316;18.908;2023-05-10T03:07:56;10.62;80.88
70708;SHT30;58277;47.316;18.908;2023-05-10T03:10:22;10.48;81.21
70708;SHT30;58277;47.316;18.908;2023-05-10T03:15:37;10.38;81.73
70708;SHT30;58277;47.316;18.908;2023-05-10T03:20:51;10.28;81.60
70708;SHT30;58277;47.316;18.908;2023-05-10T03:23:21;10.30;81.74
70708;SHT30;58277;47.316;18.908;2023-05-10T03:25:46;10.21;81.56
70708;SHT30;58277;47.316;18.908;2023-05-10T03:28:09;10.24;81.59
70708;SHT30;58277;47.316;18.908;2023-05-10T03:30:32;10.30;81.49
70708;SHT30;58277;47.316;18.908;2023-05-10T03:32:56;10.21;81.70
70708;SHT30;58277;47.316;18.908;2023-05-10T03:35:19;10.30;81.57
70708;SHT30;58277;47.316;18.908;2023-05-10T03:37:42;10.18;81.69
70708;SHT30;58277;47.316;18.908;2023-05-10T03:40:06;10.15;81.80
70708;SHT30;58277;47.316;18.908;2023-05-10T03:42:31;10.13;81.64
70708;SHT30;58277;47.316;18.908;2023-05-10T03:44:53;10.22;81.14
70708;SHT30;58277;47.316;18.908;2023-05-10T03:47:16;10.24;80.86
70708;SHT30;58277;47.316;18.908;2023-05-10T03:49:39;10.24;80.83
70708;SHT30;58277;47.316;18.908;2023-05-10T03:52:01;10.30;80.69
70708;SHT30;58277;47.316;18.908;2023-05-10T03:54:26;10.24;80.61
70708;SHT30;58277;47.316;18.908;2023-05-10T03:56:48;10.30;80.34
70708;SHT30;58277;47.316;18.908;2023-05-10T03:59:13;10.31;80.18
70708;SHT30;58277;47.316;18.908;2023-05-10T04:01:36;10.35;80.17
70708;SHT30;58277;47.316;18.908;2023-05-10T04:03:58;10.40;80.07
70708;SHT30;58277;47.316;18.908;2023-05-10T04:06:21;10.40;79.98
70708;SHT30;58277;47.316;18.908;2023-05-10T04:08:45;10.49;79.72
70708;SHT30;58277;47.316;18.908;2023-05-10T04:11:08;10.52;79.35
70708;SHT30;58277;47.316;18.908;2023-05-10T04:13:31;10.40;79.71
70708;SHT30;58277;47.316;18.908;2023-05-10T04:15:54;10.51;79.70
70708;SHT30;58277;47.316;18.908;2023-05-10T04:18:17;10.75;78.88
70708;SHT30;58277;47.316;18.908;2023-05-10T04:20:40;10.97;77.79
70708;SHT30;58277;47.316;18.908;2023-05-10T04:23:02;11.45;76.44
70708;SHT30;58277;47.316;18.908;2023-05-10T04:25:25;11.76;75.00
70708;SHT30;58277;47.316;18.908;2023-05-10T04:27:48;12.14;74.01
70708;SHT30;58277;47.316;18.908;2023-05-10T04:30:10;12.33;73.03
70708;SHT30;58277;47.316;18.908;2023-05-10T04:32:34;12.52;72.33
70708;SHT30;58277;47.316;18.908;2023-05-10T04:34:56;12.65;71.70
70708;SHT30;58277;47.316;18.908;2023-05-10T04:37:19;12.42;72.52
70708;SHT30;58277;47.316;18.908;2023-05-10T04:39:43;12.23;73.33
70708;SHT30;58277;47.316;18.908;2023-05-10T04:42:06;12.31;73.49
70708;SHT30;58277;47.316;18.908;2023-05-10T04:44:29;12.36;73.49
70708;SHT30;58277;47.316;18.908;2023-05-10T04:46:53;12.23;73.79
70708;SHT30;58277;47.316;18.908;2023-05-10T04:49:15;12.26;73.14
70708;SHT30;58277;47.316;18.908;2023-05-10T04:51:39;12.19;73.55
70708;SHT30;58277;47.316;18.908;2023-05-10T04:54:01;12.37;73.31
70708;SHT30;58277;47.316;18.908;2023-05-10T04:56:28;12.27;73.20
70708;SHT30;58277;47.316;18.908;2023-05-10T04:58:51;12.19;73.19
70708;SHT30;58277;47.316;18.908;2023-05-10T05:01:13;12.34;73.46
70708;SHT30;58277;47.316;18.908;2023-05-10T05:03:36;12.48;72.96
70708;SHT30;58277;47.316;18.908;2023-05-10T05:05:59;12.45;72.32
70708;SHT30;58277;47.316;18.908;2023-05-10T05:08:22;12.60;72.37
70708;SHT30;58277;47.316;18.908;2023-05-10T05:10:45;12.67;72.05
70708;SHT30;58277;47.316;18.908;2023-05-10T05:13:07;12.81;71.85
70708;SHT30;58277;47.316;18.908;2023-05-10T05:15:30;12.96;71.84
70708;SHT30;58277;47.316;18.908;2023-05-10T05:17:53;13.15;71.00
70708;SHT30;58277;47.316;18.908;2023-05-10T05:20:16;13.23;70.70
70708;SHT30;58277;47.316;18.908;2023-05-10T05:22:39;13.30;70.68
70708;SHT30;58277;47.316;18.908;2023-05-10T05:25:03;13.48;70.02
70708;SHT30;58277;47.316;18.908;2023-05-10T05:27:25;13.43;68.95
70708;SHT30;58277;47.316;18.908;2023-05-10T05:29:50;13.53;70.03
70708;SHT30;58277;47.316;18.908;2023-05-10T05:32:14;13.63;69.51
70708;SHT30;58277;47.316;18.908;2023-05-10T05:34:37;13.60;69.51
70708;SHT30;58277;47.316;18.908;2023-05-10T05:36:59;13.85;68.23
70708;SHT30;58277;47.316;18.908;2023-05-10T05:39:22;13.94;68.48
70708;SHT30;58277;47.316;18.908;2023-05-10T05:41:45;14.20;67.49
70708;SHT30;58277;47.316;18.908;2023-05-10T05:44:08;14.55;66.15
70708;SHT30;58277;47.316;18.908;2023-05-10T05:46:31;14.77;64.70
70708;SHT30;58277;47.316;18.908;2023-05-10T05:48:54;14.74;64.79
70708;SHT30;58277;47.316;18.908;2023-05-10T05:51:17;14.87;64.94
70708;SHT30;58277;47.316;18.908;2023-05-10T05:53:40;15.05;63.88
70708;SHT30;58277;47.316;18.908;2023-05-10T05:56:02;15.11;63.74
70708;SHT30;58277;47.316;18.908;2023-05-10T05:58:26;15.06;64.46
70708;SHT30;58277;47.316;18.908;2023-05-10T06:00:49;15.25;63.90
70708;SHT30;58277;47.316;18.908;2023-05-10T06:03:12;15.04;63.26
70708;SHT30;58277;47.316;18.908;2023-05-10T06:05:35;14.83;63.71
70708;SHT30;58277;47.316;18.908;2023-05-10T06:07:59;14.66;64.25
70708;SHT30;58277;47.316;18.908;2023-05-10T06:10:22;14.89;63.52
70708;SHT30;58277;47.316;18.908;2023-05-10T06:12:45;15.84;61.45
70708;SHT30;58277;47.316;18.908;2023-05-10T06:15:08;15.64;60.69
70708;SHT30;58277;47.316;18.908;2023-05-10T06:17:31;15.12;61.69
70708;SHT30;58277;47.316;18.908;2023-05-10T06:19:55;14.98;63.44
70708;SHT30;58277;47.316;18.908;2023-05-10T06:22:17;14.99;64.17
70708;SHT30;58277;47.316;18.908;2023-05-10T06:24:40;15.02;63.20
70708;SHT30;58277;47.316;18.908;2023-05-10T06:27:04;15.05;63.82
70708;SHT30;58277;47.316;18.908;2023-05-10T06:29:26;14.81;63.03
70708;SHT30;58277;47.316;18.908;2023-05-10T06:31:49;14.74;63.21
70708;SHT30;58277;47.316;18.908;2023-05-10T06:34:12;14.88;64.36
70708;SHT30;58277;47.316;18.908;2023-05-10T06:36:35;15.21;63.95
70708;SHT30;58277;47.316;18.908;2023-05-10T06:38:58;15.39;62.87
70708;SHT30;58277;47.316;18.908;2023-05-10T06:41:21;15.39;62.08
70708;SHT30;58277;47.316;18.908;2023-05-10T06:43:46;15.25;62.54
70708;SHT30;58277;47.316;18.908;2023-05-10T06:46:09;15.24;62.71
70708;SHT30;58277;47.316;18.908;2023-05-10T06:48:32;15.31;61.54
70708;SHT30;58277;47.316;18.908;2023-05-10T06:50:55;15.47;61.76
70708;SHT30;58277;47.316;18.908;2023-05-10T06:53:37;15.31;62.50
70708;SHT30;58277;47.316;18.908;2023-05-10T06:56:00;15.09;61.89
70708;SHT30;58277;47.316;18.908;2023-05-10T06:58:23;15.24;60.97
70708;SHT30;58277;47.316;18.908;2023-05-10T07:00:45;15.19;62.18
70708;SHT30;58277;47.316;18.908;2023-05-10T07:03:10;15.32;62.30
70708;SHT30;58277;47.316;18.908;2023-05-10T07:05:33;15.32;61.61
70708;SHT30;58277;47.316;18.908;2023-05-10T07:07:56;15.50;61.49
70708;SHT30;58277;47.316;18.908;2023-05-10T07:10:19;15.50;61.04
70708;SHT30;58277;47.316;18.908;2023-05-10T07:12:41;15.46;61.29
70708;SHT30;58277;47.316;18.908;2023-05-10T07:15:05;15.67;62.03
70708;SHT30;58277;47.316;18.908;2023-05-10T07:17:28;15.79;60.17
70708;SHT30;58277;47.316;18.908;2023-05-10T07:19:51;15.70;61.20
70708;SHT30;58277;47.316;18.908;2023-05-10T07:22:14;15.87;60.86
70708;SHT30;58277;47.316;18.908;2023-05-10T07:24:37;15.74;60.51
70708;SHT30;58277;47.316;18.908;2023-05-10T07:27:00;15.79;58.95
70708;SHT30;58277;47.316;18.908;2023-05-10T07:29:22;15.93;59.93
70708;SHT30;58277;47.316;18.908;2023-05-10T07:31:45;16.07;59.28
70708;SHT30;58277;47.316;18.908;2023-05-10T07:34:08;16.22;58.58
70708;SHT30;58277;47.316;18.908;2023-05-10T07:36:31;16.39;58.53
70708;SHT30;58277;47.316;18.908;2023-05-10T07:38:54;16.36;59.23
70708;SHT30;58277;47.316;18.908;2023-05-10T07:41:18;16.70;58.33
70708;SHT30;58277;47.316;18.908;2023-05-10T07:43:41;16.80;58.71
70708;SHT30;58277;47.316;18.908;2023-05-10T07:46:04;17.06;56.79
70708;SHT30;58277;47.316;18.908;2023-05-10T07:48:27;16.90;56.11
70708;SHT30;58277;47.316;18.908;2023-05-10T07:50:51;16.94;55.58
70708;SHT30;58277;47.316;18.908;2023-05-10T07:53:13;17.08;56.12
70708;SHT30;58277;47.316;18.908;2023-05-10T07:55:36;17.28;55.23
70708;SHT30;58277;47.316;18.908;2023-05-10T07:57:59;17.30;53.64
70708;SHT30;58277;47.316;18.908;2023-05-10T08:00:26;17.61;53.41
70708;SHT30;58277;47.316;18.908;2023-05-10T08:02:53;17.68;53.88
70708;SHT30;58277;47.316;18.908;2023-05-10T08:05:23;17.15;55.79
70708;SHT30;58277;47.316;18.908;2023-05-10T08:07:51;16.86;55.73
70708;SHT30;58277;47.316;18.908;2023-05-10T08:10:14;16.62;56.44
70708;SHT30;58277;47.316;18.908;2023-05-10T08:12:37;17.11;55.89
70708;SHT30;58277;47.316;18.908;2023-05-10T08:15:00;17.18;55.67
70708;SHT30;58277;47.316;18.908;2023-05-10T08:17:23;17.02;54.83
70708;SHT30;58277;47.316;18.908;2023-05-10T08:19:46;17.15;55.52
70708;SHT30;58277;47.316;18.908;2023-05-10T08:22:08;17.30;54.94
70708;SHT30;58277;47.316;18.908;2023-05-10T08:24:31;17.18;55.34
70708;SHT30;58277;47.316;18.908;2023-05-10T08:26:54;17.00;53.87
70708;SHT30;58277;47.316;18.908;2023-05-10T08:29:17;16.81;53.75
70708;SHT30;58277;47.316;18.908;2023-05-10T08:31:40;16.86;54.24
70708;SHT30;58277;47.316;18.908;2023-05-10T08:34:02;16.90;53.91
70708;SHT30;58277;47.316;18.908;2023-05-10T08:36:25;17.20;54.95
70708;SHT30;58277;47.316;18.908;2023-05-10T08:38:51;17.17;54.53
70708;SHT30;58277;47.316;18.908;2023-05-10T08:41:14;16.81;53.95
70708;SHT30;58277;47.316;18.908;2023-05-10T08:43:37;16.65;53.59
70708;SHT30;58277;47.316;18.908;2023-05-10T08:46:01;16.73;54.26
70708;SHT30;58277;47.316;18.908;2023-05-10T08:48:26;16.99;54.31
70708;SHT30;58277;47.316;18.908;2023-05-10T08:50:53;17.39;53.43
70708;SHT30;58277;47.316;18.908;2023-05-10T08:53:20;17.55;52.51
70708;SHT30;58277;47.316;18.908;2023-05-10T08:55:43;17.55;52.72
70708;SHT30;58277;47.316;18.908;2023-05-10T08:58:06;17.87;51.81
70708;SHT30;58277;47.316;18.908;2023-05-10T09:00:29;17.52;52.15
70708;SHT30;58277;47.316;18.908;2023-05-10T09:02:53;17.62;51.63
70708;SHT30;58277;47.316;18.908;2023-05-10T09:05:16;17.75;51.77
70708;SHT30;58277;47.316;18.908;2023-05-10T09:07:41;17.96;52.07
70708;SHT30;58277;47.316;18.908;2023-05-10T09:10:04;17.93;50.76
70708;SHT30;58277;47.316;18.908;2023-05-10T09:12:27;17.76;51.08
70708;SHT30;58277;47.316;18.908;2023-05-10T09:14:52;17.76;51.43
70708;SHT30;58277;47.316;18.908;2023-05-10T09:17:35;18.28;50.07
70708;SHT30;58277;47.316;18.908;2023-05-10T09:20:19;18.34;50.61
70708;SHT30;58277;47.316;18.908;2023-05-10T09:22:42;18.51;48.77
70708;SHT30;58277;47.316;18.908;2023-05-10T09:27:27;18.41;48.08
70708;SHT30;58277;47.316;18.908;2023-05-10T09:29:50;18.61;48.92
70708;SHT30;58277;47.316;18.908;2023-05-10T09:32:16;18.85;48.28
70708;SHT30;58277;47.316;18.908;2023-05-10T09:34:39;18.38;48.97
70708;SHT30;58277;47.316;18.908;2023-05-10T09:37:02;17.97;48.60
70708;SHT30;58277;47.316;18.908;2023-05-10T09:39:37;17.69;49.68
70708;SHT30;58277;47.316;18.908;2023-05-10T09:42:08;17.91;49.93
70708;SHT30;58277;47.316;18.908;2023-05-10T09:44:32;17.99;50.30
70708;SHT30;58277;47.316;18.908;2023-05-10T09:46:55;17.87;49.83
70708;SHT30;58277;47.316;18.908;2023-05-10T09:49:20;18.13;50.90
70708;SHT30;58277;47.316;18.908;2023-05-10T09:51:43;18.28;49.45
70708;SHT30;58277;47.316;18.908;2023-05-10T09:54:11;18.76;49.20
70708;SHT30;58277;47.316;18.908;2023-05-10T09:56:35;18.47;48.68
70708;SHT30;58277;47.316;18.908;2023-05-10T09:59:03;18.38;47.27
70708;SHT30;58277;47.316;18.908;2023-05-10T10:01:26;18.37;47.38
70708;SHT30;58277;47.316;18.908;2023-05-10T10:03:49;18.13;47.96
70708;SHT30;58277;47.316;18.908;2023-05-10T10:06:18;17.99;48.43
70708;SHT30;58277;47.316;18.908;2023-05-10T10:08:52;18.04;48.77
70708;SHT30;58277;47.316;18.908;2023-05-10T10:11:18;18.34;47.31
70708;SHT30;58277;47.316;18.908;2023-05-10T10:13:40;18.86;47.67
70708;SHT30;58277;47.316;18.908;2023-05-10T10:16:03;18.81;47.02
70708;SHT30;58277;47.316;18.908;2023-05-10T10:18:26;18.57;47.48
70708;SHT30;58277;47.316;18.908;2023-05-10T10:20:51;18.24;48.48
70708;SHT30;58277;47.316;18.908;2023-05-10T10:23:14;18.30;47.95
70708;SHT30;58277;47.316;18.908;2023-05-10T10:25:39;18.40;47.59
70708;SHT30;58277;47.316;18.908;2023-05-10T10:28:19;18.54;47.99
70708;SHT30;58277;47.316;18.908;2023-05-10T10:30:51;18.43;48.28
70708;SHT30;58277;47.316;18.908;2023-05-10T10:35:50;18.07;48.91
70708;SHT30;58277;47.316;18.908;2023-05-10T10:38:14;18.65;48.76
70708;SHT30;58277;47.316;18.908;2023-05-10T10:40:38;18.92;48.25
70708;SHT30;58277;47.316;18.908;2023-05-10T10:46:13;18.98;46.57
70708;SHT30;58277;47.316;18.908;2023-05-10T10:48:36;19.03;46.20
70708;SHT30;58277;47.316;18.908;2023-05-10T10:51:00;19.07;47.07
70708;SHT30;58277;47.316;18.908;2023-05-10T10:53:26;18.88;46.62
70708;SHT30;58277;47.316;18.908;2023-05-10T10:56:04;18.66;48.64
70708;SHT30;58277;47.316;18.908;2023-05-10T10:58:30;18.75;48.09
70708;SHT30;58277;47.316;18.908;2023-05-10T11:01:09;19.12;47.36
70708;SHT30;58277;47.316;18.908;2023-05-10T11:03:33;19.51;45.63
70708;SHT30;58277;47.316;18.908;2023-05-10T11:05:58;19.85;44.68
70708;SHT30;58277;47.316;18.908;2023-05-10T11:08:29;20.09;44.35
70708;SHT30;58277;47.316;18.908;2023-05-10T11:15:54;19.60;44.53
70708;SHT30;58277;47.316;18.908;2023-05-10T11:18:26;19.40;44.30
70708;SHT30;58277;47.316;18.908;2023-05-10T11:21:00;19.28;45.93
70708;SHT30;58277;47.316;18.908;2023-05-10T11:25:53;19.55;44.39
70708;SHT30;58277;47.316;18.908;2023-05-10T11:28:17;19.72;43.65
70708;SHT30;58277;47.316;18.908;2023-05-10T11:30:43;19.60;44.38
70708;SHT30;58277;47.316;18.908;2023-05-10T11:33:08;19.46;45.17
70708;SHT30;58277;47.316;18.908;2023-05-10T11:35:37;19.65;43.60
70708;SHT30;58277;47.316;18.908;2023-05-10T11:38:06;19.96;43.24
70708;SHT30;58277;47.316;18.908;2023-05-10T11:40:28;19.95;44.21
70708;SHT30;58277;47.316;18.908;2023-05-10T11:42:51;19.82;44.75
70708;SHT30;58277;47.316;18.908;2023-05-10T11:45:14;19.72;44.82
70708;SHT30;58277;47.316;18.908;2023-05-10T11:47:38;19.57;43.95
70708;SHT30;58277;47.316;18.908;2023-05-10T11:50:05;19.55;44.03
70708;SHT30;58277;47.316;18.908;2023-05-10T11:52:28;19.70;43.27
70708;SHT30;58277;47.316;18.908;2023-05-10T11:54:52;20.09;42.34
70708;SHT30;58277;47.316;18.908;2023-05-10T11:57:15;20.15;42.20
70708;SHT30;58277;47.316;18.908;2023-05-10T11:59:38;19.74;42.95
70708;SHT30;58277;47.316;18.908;2023-05-10T12:02:04;19.74;43.57
70708;SHT30;58277;47.316;18.908;2023-05-10T12:04:27;19.72;43.17
70708;SHT30;58277;47.316;18.908;2023-05-10T12:06:52;19.89;42.56
70708;SHT30;58277;47.316;18.908;2023-05-10T12:09:14;19.93;42.76
70708;SHT30;58277;47.316;18.908;2023-05-10T12:11:40;19.74;43.38
70708;SHT30;58277;47.316;18.908;2023-05-10T12:14:06;19.89;43.58
70708;SHT30;58277;47.316;18.908;2023-05-10T12:16:29;19.79;42.55
70708;SHT30;58277;47.316;18.908;2023-05-10T12:18:54;19.85;43.99
70708;SHT30;58277;47.316;18.908;2023-05-10T12:21:19;19.89;42.89
70708;SHT30;58277;47.316;18.908;2023-05-10T12:23:45;19.85;42.44
70708;SHT30;58277;47.316;18.908;2023-05-10T12:26:09;19.88;42.82
70708;SHT30;58277;47.316;18.908;2023-05-10T12:28:33;20.26;42.11
70708;SHT30;58277;47.316;18.908;2023-05-10T12:30:57;20.44;41.79
70708;SHT30;58277;47.316;18.908;2023-05-10T12:33:20;20.20;40.82
70708;SHT30;58277;47.316;18.908;2023-05-10T12:35:51;20.57;41.49
70708;SHT30;58277;47.316;18.908;2023-05-10T12:40:51;20.16;42.48
70708;SHT30;58277;47.316;18.908;2023-05-10T12:43:14;20.26;41.41
70708;SHT30;58277;47.316;18.908;2023-05-10T12:45:37;20.36;42.69
70708;SHT30;58277;47.316;18.908;2023-05-10T12:48:00;20.43;41.76
70708;SHT30;58277;47.316;18.908;2023-05-10T12:50:23;20.57;41.81
70708;SHT30;58277;47.316;18.908;2023-05-10T12:52:46;20.75;40.86
70708;SHT30;58277;47.316;18.908;2023-05-10T12:55:09;21.01;39.86
70708;SHT30;58277;47.316;18.908;2023-05-10T12:57:32;20.70;40.36
70708;SHT30;58277;47.316;18.908;2023-05-10T12:59:55;20.27;40.09
70708;SHT30;58277;47.316;18.908;2023-05-10T13:02:18;20.08;41.34
70708;SHT30;58277;47.316;18.908;2023-05-10T13:04:41;20.10;41.00
70708;SHT30;58277;47.316;18.908;2023-05-10T13:07:04;19.96;41.37
70708;SHT30;58277;47.316;18.908;2023-05-10T13:09:27;20.06;41.14
70708;SHT30;58277;47.316;18.908;2023-05-10T13:11:53;20.29;41.33
70708;SHT30;58277;47.316;18.908;2023-05-10T13:14:16;20.12;41.19
70708;SHT30;58277;47.316;18.908;2023-05-10T13:16:39;20.15;41.00
70708;SHT30;58277;47.316;18.908;2023-05-10T13:19:02;20.08;41.15
70708;SHT30;58277;47.316;18.908;2023-05-10T13:21:25;20.16;40.58
70708;SHT30;58277;47.316;18.908;2023-05-10T13:23:48;20.13;40.75
70708;SHT30;58277;47.316;18.908;2023-05-10T13:26:11;20.36;40.49
70708;SHT30;58277;47.316;18.908;2023-05-10T13:28:33;20.53;40.21
70708;SHT30;58277;47.316;18.908;2023-05-10T13:30:56;20.47;39.50
70708;SHT30;58277;47.316;18.908;2023-05-10T13:33:19;20.54;39.73
70708;SHT30;58277;47.316;18.908;2023-05-10T13:35:42;20.46;39.70
70708;SHT30;58277;47.316;18.908;2023-05-10T13:38:05;20.48;40.64
70708;SHT30;58277;47.316;18.908;2023-05-10T13:40:30;20.53;40.01
70708;SHT30;58277;47.316;18.908;2023-05-10T13:42:53;19.98;40.13
70708;SHT30;58277;47.316;18.908;2023-05-10T13:45:16;19.79;40.25
70708;SHT30;58277;47.316;18.908;2023-05-10T13:47:39;19.53;40.35
70708;SHT30;58277;47.316;18.908;2023-05-10T13:50:02;19.74;39.87
70708;SHT30;58277;47.316;18.908;2023-05-10T13:52:26;19.79;41.04
70708;SHT30;58277;47.316;18.908;2023-05-10T13:54:48;19.72;41.04
70708;SHT30;58277;47.316;18.908;2023-05-10T13:57:12;19.67;40.89
70708;SHT30;58277;47.316;18.908;2023-05-10T13:59:36;19.99;40.26
70708;SHT30;58277;47.316;18.908;2023-05-10T14:01:59;20.39;40.98
70708;SHT30;58277;47.316;18.908;2023-05-10T14:04:25;20.51;39.71
70708;SHT30;58277;47.316;18.908;2023-05-10T14:06:47;20.51;38.06
70708;SHT30;58277;47.316;18.908;2023-05-10T14:09:10;20.29;38.40
70708;SHT30;58277;47.316;18.908;2023-05-10T14:11:33;20.19;38.51
70708;SHT30;58277;47.316;18.908;2023-05-10T14:13:55;20.16;39.53
70708;SHT30;58277;47.316;18.908;2023-05-10T14:16:18;20.22;39.06
70708;SHT30;58277;47.316;18.908;2023-05-10T14:18:42;20.47;38.50
70708;SHT30;58277;47.316;18.908;2023-05-10T14:21:05;20.78;38.67
70708;SHT30;58277;47.316;18.908;2023-05-10T14:23:27;20.64;38.15
70708;SHT30;58277;47.316;18.908;2023-05-10T14:25:54;20.78;38.09
70708;SHT30;58277;47.316;18.908;2023-05-10T14:28:17;20.71;36.03
70708;SHT30;58277;47.316;18.908;2023-05-10T14:30:40;20.77;36.72
70708;SHT30;58277;47.316;18.908;2023-05-10T14:33:03;20.68;36.06
70708;SHT30;58277;47.316;18.908;2023-05-10T14:35:44;20.67;35.82
70708;SHT30;58277;47.316;18.908;2023-05-10T14:38:07;20.70;36.29
70708;SHT30;58277;47.316;18.908;2023-05-10T14:40:32;20.75;36.42
70708;SHT30;58277;47.316;18.908;2023-05-10T14:42:56;20.94;37.82
70708;SHT30;58277;47.316;18.908;2023-05-10T14:45:18;20.26;36.55
70708;SHT30;58277;47.316;18.908;2023-05-10T14:47:41;20.17;37.51
70708;SHT30;58277;47.316;18.908;2023-05-10T14:50:05;20.05;37.71
70708;SHT30;58277;47.316;18.908;2023-05-10T14:52:28;20.23;37.53
70708;SHT30;58277;47.316;18.908;2023-05-10T14:54:50;20.09;39.05
70708;SHT30;58277;47.316;18.908;2023-05-10T14:57:13;20.17;37.17
70708;SHT30;58277;47.316;18.908;2023-05-10T14:59:36;19.93;37.84
70708;SHT30;58277;47.316;18.908;2023-05-10T15:01:59;19.96;38.24
70708;SHT30;58277;47.316;18.908;2023-05-10T15:04:22;20.10;38.95
70708;SHT30;58277;47.316;18.908;2023-05-10T15:06:45;20.30;38.70
70708;SHT30;58277;47.316;18.908;2023-05-10T15:09:08;20.48;38.24
70708;SHT30;58277;47.316;18.908;2023-05-10T15:11:31;20.65;37.15
70708;SHT30;58277;47.316;18.908;2023-05-10T15:13:54;20.74;36.20
70708;SHT30;58277;47.316;18.908;2023-05-10T15:16:17;20.90;37.78
70708;SHT30;58277;47.316;18.908;2023-05-10T15:18:40;20.90;35.30
70708;SHT30;58277;47.316;18.908;2023-05-10T15:21:02;20.57;35.75
70708;SHT30;58277;47.316;18.908;2023-05-10T15:23:25;20.58;37.46
70708;SHT30;58277;47.316;18.908;2023-05-10T15:25:48;20.57;37.49
70708;SHT30;58277;47.316;18.908;2023-05-10T15:28:14;20.53;37.41
70708;SHT30;58277;47.316;18.908;2023-05-10T15:30:37;20.32;37.62